モントリオール/トルドー の空港の天気 - METARとTAF

モントリオール・ピエール・エリオット・トルドー国際空港 ( CYUL / YUL ) - カナダ ケベック州モントリオール
飛行場実況気象(Metar)
観測時間07/20 18:00 EDT (07/20 22:00 UTC)
風向・風速南 4m/s
視程10km以上
天気現象
少しの雲 雲底高度 3960m
少しの雲 雲底高度 7320m
気温24℃
湿度69%
気圧1009.8hPa
METARCYUL 202200Z 17007KT 15SM FEW130 FEW240 24/18 A2981 RMK AC1CI1 AC TR CI TR CB TOPS E SLP098 DENSITY ALT 1400FT
過去の天気等 Google飛行場航空写真 Wunderground天気予報

過去48時間のMETAR

飛行場予報(TAF)
発表時間: 7/20 16:39 EDT (7/20 20:39 UTC)
予報対象時間: 20日17時 EDT ~ 21日14時 EDT
風向・風速南西 5m/s
視程10km以上
全天の4割程度の雲 雲底高度 3,960m
20日20時 EDT ~ 20日22時 EDT に徐々に
風向・風速西南西 3m/s
21日7時 EDT から
風向・風速西北西 5m/s
視程10km以上
全天の8割程度の雲 雲底高度 2,130m
21日10時 EDT から
風向・風速西 5m/s
視程10km以上
少しの雲 雲底高度 2,130m
TAF CYUL 202039Z 2021/2118 22010KT P6SM SCT130
BECMG 2100/2102 24006KT
FM211100 30010KT P6SM BKN070
FM211400 28010KT P6SM FEW070 RMK NXT FCST BY 210000Z